Terminal Aerodrome Forecast
Issued by NWS

Home | Current Version | Previous Version | Text Only | Print | Product List | Glossary Off
Versions: 1 2 3 4 5 6 7 8 9 10 11 12 13 14 15 16 17 18

000
FTUS43 KGRB 291700
TAFRHI
TAF
KRHI 291728Z 2918/3018 30009KT P6SM OVC020
     FM300200 27003KT P6SM OVC015
     FM301200 26007KT P6SM BKN020 OVC050=

USA.gov is the U.S. government's official web portal to all federal, state and local government web resources and services.